sensor_id;sensor_type;location;lat;lon;timestamp;pressure;altitude;pressure_sealevel;temperature;humidity
37860;BME280;23698;52.014;5.190;2024-03-08T00:02:03;101835.22;;;13.36;88.37
37860;BME280;23698;52.014;5.190;2024-03-08T00:04:50;101832.97;;;13.70;90.05
37860;BME280;23698;52.014;5.190;2024-03-08T00:07:39;101830.63;;;13.52;91.01
37860;BME280;23698;52.014;5.190;2024-03-08T00:10:26;101825.84;;;13.54;88.39
37860;BME280;23698;52.014;5.190;2024-03-08T00:13:14;101822.69;;;13.12;93.58
37860;BME280;23698;52.014;5.190;2024-03-08T00:16:01;101816.88;;;14.05;86.64
37860;BME280;23698;52.014;5.190;2024-03-08T00:18:47;101821.44;;;13.15;93.55
37860;BME280;23698;52.014;5.190;2024-03-08T00:21:35;101820.41;;;13.01;90.83
37860;BME280;23698;52.014;5.190;2024-03-08T00:24:23;101811.56;;;14.18;85.04
37860;BME280;23698;52.014;5.190;2024-03-08T00:27:10;101807.63;;;13.54;84.81
37860;BME280;23698;52.014;5.190;2024-03-08T00:29:57;101809.78;;;13.44;87.69
37860;BME280;23698;52.014;5.190;2024-03-08T00:32:44;101805.19;;;13.59;83.73
37860;BME280;23698;52.014;5.190;2024-03-08T00:35:31;101804.72;;;13.41;90.38
37860;BME280;23698;52.014;5.190;2024-03-08T00:38:18;101801.66;;;13.21;86.54
37860;BME280;23698;52.014;5.190;2024-03-08T00:41:06;101798.63;;;13.39;87.52
37860;BME280;23698;52.014;5.190;2024-03-08T00:43:53;101803.31;;;13.60;87.58
37860;BME280;23698;52.014;5.190;2024-03-08T00:46:39;101807.22;;;13.57;85.76
37860;BME280;23698;52.014;5.190;2024-03-08T00:49:26;101802.16;;;13.69;86.22
37860;BME280;23698;52.014;5.190;2024-03-08T00:52:12;101793.00;;;13.02;87.16
37860;BME280;23698;52.014;5.190;2024-03-08T00:55:00;101786.06;;;13.15;86.67
37860;BME280;23698;52.014;5.190;2024-03-08T00:57:48;101781.81;;;13.35;87.07
37860;BME280;23698;52.014;5.190;2024-03-08T01:00:35;101778.84;;;13.22;85.75
37860;BME280;23698;52.014;5.190;2024-03-08T01:03:23;101776.31;;;12.21;87.68
37860;BME280;23698;52.014;5.190;2024-03-08T01:06:10;101767.97;;;12.84;89.70
37860;BME280;23698;52.014;5.190;2024-03-08T01:08:57;101762.41;;;13.15;88.04
37860;BME280;23698;52.014;5.190;2024-03-08T01:11:44;101765.56;;;13.42;86.35
37860;BME280;23698;52.014;5.190;2024-03-08T01:14:32;101764.13;;;13.31;86.86
37860;BME280;23698;52.014;5.190;2024-03-08T01:17:19;101752.09;;;13.70;83.56
37860;BME280;23698;52.014;5.190;2024-03-08T01:20:06;101761.38;;;12.63;89.87
37860;BME280;23698;52.014;5.190;2024-03-08T01:22:56;101752.91;;;12.58;91.50
37860;BME280;23698;52.014;5.190;2024-03-08T01:25:43;101753.22;;;13.31;85.39
37860;BME280;23698;52.014;5.190;2024-03-08T01:28:30;101742.50;;;13.15;84.62
37860;BME280;23698;52.014;5.190;2024-03-08T01:31:20;101749.22;;;13.42;83.62
37860;BME280;23698;52.014;5.190;2024-03-08T01:34:07;101743.09;;;13.55;81.78
37860;BME280;23698;52.014;5.190;2024-03-08T01:36:54;101742.72;;;13.43;83.46
37860;BME280;23698;52.014;5.190;2024-03-08T01:39:41;101736.63;;;13.41;83.03
37860;BME280;23698;52.014;5.190;2024-03-08T01:42:27;101733.09;;;12.26;89.22
37860;BME280;23698;52.014;5.190;2024-03-08T01:45:14;101729.47;;;13.40;83.78
37860;BME280;23698;52.014;5.190;2024-03-08T01:48:04;101726.66;;;13.03;87.98
37860;BME280;23698;52.014;5.190;2024-03-08T01:50:51;101717.25;;;12.30;92.90
37860;BME280;23698;52.014;5.190;2024-03-08T01:53:40;101723.53;;;13.07;85.89
37860;BME280;23698;52.014;5.190;2024-03-08T01:56:31;101720.91;;;13.13;84.06
37860;BME280;23698;52.014;5.190;2024-03-08T01:59:18;101715.38;;;13.21;82.66
37860;BME280;23698;52.014;5.190;2024-03-08T02:02:06;101721.88;;;12.30;87.20
37860;BME280;23698;52.014;5.190;2024-03-08T02:04:56;101722.81;;;12.37;86.16
37860;BME280;23698;52.014;5.190;2024-03-08T02:07:42;101714.81;;;11.58;93.76
37860;BME280;23698;52.014;5.190;2024-03-08T02:10:30;101709.88;;;12.39;90.23
37860;BME280;23698;52.014;5.190;2024-03-08T02:13:17;101710.47;;;11.80;90.61
37860;BME280;23698;52.014;5.190;2024-03-08T02:16:04;101702.31;;;12.11;88.21
37860;BME280;23698;52.014;5.190;2024-03-08T02:18:53;101692.63;;;12.08;86.14
37860;BME280;23698;52.014;5.190;2024-03-08T02:21:43;101692.56;;;12.40;88.59
37860;BME280;23698;52.014;5.190;2024-03-08T02:24:32;101690.28;;;12.28;86.68
37860;BME280;23698;52.014;5.190;2024-03-08T02:27:23;101689.25;;;11.75;86.79
37860;BME280;23698;52.014;5.190;2024-03-08T02:30:10;101687.13;;;12.40;84.52
37860;BME280;23698;52.014;5.190;2024-03-08T02:32:58;101682.19;;;12.58;83.19
37860;BME280;23698;52.014;5.190;2024-03-08T02:35:45;101679.00;;;13.59;78.38
37860;BME280;23698;52.014;5.190;2024-03-08T02:38:34;101672.84;;;13.06;77.70
37860;BME280;23698;52.014;5.190;2024-03-08T02:41:20;101669.06;;;12.62;80.98
37860;BME280;23698;52.014;5.190;2024-03-08T02:44:07;101664.03;;;13.18;79.01
37860;BME280;23698;52.014;5.190;2024-03-08T02:46:54;101661.38;;;13.25;76.99
37860;BME280;23698;52.014;5.190;2024-03-08T02:49:41;101661.25;;;12.44;80.73
37860;BME280;23698;52.014;5.190;2024-03-08T02:52:28;101657.19;;;13.08;78.83
37860;BME280;23698;52.014;5.190;2024-03-08T02:55:16;101656.31;;;12.62;81.07
37860;BME280;23698;52.014;5.190;2024-03-08T02:58:03;101650.59;;;11.96;83.09
37860;BME280;23698;52.014;5.190;2024-03-08T03:00:49;101657.28;;;11.23;89.97
37860;BME280;23698;52.014;5.190;2024-03-08T03:03:36;101645.66;;;11.68;89.31
37860;BME280;23698;52.014;5.190;2024-03-08T03:06:22;101644.13;;;11.43;89.33
37860;BME280;23698;52.014;5.190;2024-03-08T03:09:09;101639.06;;;11.40;87.67
37860;BME280;23698;52.014;5.190;2024-03-08T03:11:58;101632.00;;;12.46;83.93
37860;BME280;23698;52.014;5.190;2024-03-08T03:14:44;101631.41;;;11.98;85.36
37860;BME280;23698;52.014;5.190;2024-03-08T03:17:31;101630.75;;;11.87;83.41
37860;BME280;23698;52.014;5.190;2024-03-08T03:20:18;101627.28;;;11.47;85.30
37860;BME280;23698;52.014;5.190;2024-03-08T03:23:13;101628.19;;;12.17;82.41
37860;BME280;23698;52.014;5.190;2024-03-08T03:26:01;101620.66;;;12.57;81.91
37860;BME280;23698;52.014;5.190;2024-03-08T03:28:49;101620.25;;;11.84;81.12
37860;BME280;23698;52.014;5.190;2024-03-08T03:31:36;101622.28;;;11.90;85.81
37860;BME280;23698;52.014;5.190;2024-03-08T03:34:23;101617.50;;;11.07;86.76
37860;BME280;23698;52.014;5.190;2024-03-08T03:37:10;101615.94;;;11.44;86.56
37860;BME280;23698;52.014;5.190;2024-03-08T03:39:57;101607.06;;;11.81;84.58
37860;BME280;23698;52.014;5.190;2024-03-08T03:42:44;101611.50;;;11.74;83.43
37860;BME280;23698;52.014;5.190;2024-03-08T03:45:32;101614.66;;;11.31;85.57
37860;BME280;23698;52.014;5.190;2024-03-08T03:48:22;101603.59;;;12.34;79.91
37860;BME280;23698;52.014;5.190;2024-03-08T03:51:09;101599.94;;;12.71;78.19
37860;BME280;23698;52.014;5.190;2024-03-08T03:53:56;101603.41;;;11.43;81.70
37860;BME280;23698;52.014;5.190;2024-03-08T03:56:43;101608.38;;;11.85;82.14
37860;BME280;23698;52.014;5.190;2024-03-08T03:59:30;101603.66;;;11.79;79.55
37860;BME280;23698;52.014;5.190;2024-03-08T04:02:18;101602.88;;;11.70;78.64
37860;BME280;23698;52.014;5.190;2024-03-08T04:05:06;101601.53;;;11.66;80.85
37860;BME280;23698;52.014;5.190;2024-03-08T04:07:53;101597.09;;;12.20;80.74
37860;BME280;23698;52.014;5.190;2024-03-08T04:10:40;101596.75;;;11.45;79.22
37860;BME280;23698;52.014;5.190;2024-03-08T04:13:27;101599.97;;;12.18;77.23
37860;BME280;23698;52.014;5.190;2024-03-08T04:16:15;101594.38;;;11.74;76.46
37860;BME280;23698;52.014;5.190;2024-03-08T04:19:02;101591.53;;;12.28;78.62
37860;BME280;23698;52.014;5.190;2024-03-08T04:21:50;101588.47;;;11.39;80.79
37860;BME280;23698;52.014;5.190;2024-03-08T04:24:36;101581.91;;;12.25;76.29
37860;BME280;23698;52.014;5.190;2024-03-08T04:27:25;101584.28;;;11.59;77.40
37860;BME280;23698;52.014;5.190;2024-03-08T04:30:12;101584.16;;;12.22;78.47
37860;BME280;23698;52.014;5.190;2024-03-08T04:32:59;101576.59;;;11.94;77.22
37860;BME280;23698;52.014;5.190;2024-03-08T04:35:47;101581.69;;;11.66;76.78
37860;BME280;23698;52.014;5.190;2024-03-08T04:38:34;101580.41;;;12.53;73.88
37860;BME280;23698;52.014;5.190;2024-03-08T04:41:23;101576.91;;;12.14;75.33
37860;BME280;23698;52.014;5.190;2024-03-08T04:44:11;101567.94;;;12.73;73.72
37860;BME280;23698;52.014;5.190;2024-03-08T04:46:58;101566.94;;;12.74;74.11
37860;BME280;23698;52.014;5.190;2024-03-08T04:49:45;101557.53;;;12.32;74.08
37860;BME280;23698;52.014;5.190;2024-03-08T04:52:33;101566.06;;;11.91;73.83
37860;BME280;23698;52.014;5.190;2024-03-08T04:55:20;101559.91;;;11.97;74.62
37860;BME280;23698;52.014;5.190;2024-03-08T04:58:08;101561.19;;;12.54;73.36
37860;BME280;23698;52.014;5.190;2024-03-08T05:00:54;101560.50;;;11.38;76.86
37860;BME280;23698;52.014;5.190;2024-03-08T05:03:41;101556.78;;;12.23;73.92
37860;BME280;23698;52.014;5.190;2024-03-08T05:06:28;101557.09;;;11.90;73.97
37860;BME280;23698;52.014;5.190;2024-03-08T05:09:17;101557.97;;;12.06;76.06
37860;BME280;23698;52.014;5.190;2024-03-08T05:12:04;101556.16;;;11.98;73.38
37860;BME280;23698;52.014;5.190;2024-03-08T05:14:51;101554.28;;;11.76;74.85
37860;BME280;23698;52.014;5.190;2024-03-08T05:17:39;101561.00;;;11.42;74.24
37860;BME280;23698;52.014;5.190;2024-03-08T05:20:27;101552.06;;;12.02;76.21
37860;BME280;23698;52.014;5.190;2024-03-08T05:23:14;101546.56;;;12.25;73.27
37860;BME280;23698;52.014;5.190;2024-03-08T05:26:02;101550.91;;;10.96;77.11
37860;BME280;23698;52.014;5.190;2024-03-08T05:28:51;101543.56;;;11.05;78.64
37860;BME280;23698;52.014;5.190;2024-03-08T05:31:45;101545.09;;;12.00;74.64
37860;BME280;23698;52.014;5.190;2024-03-08T05:34:32;101542.88;;;11.80;77.75
37860;BME280;23698;52.014;5.190;2024-03-08T05:37:18;101546.81;;;11.78;74.74
37860;BME280;23698;52.014;5.190;2024-03-08T05:40:06;101548.47;;;11.79;75.62
37860;BME280;23698;52.014;5.190;2024-03-08T05:43:02;101544.44;;;11.98;75.97
37860;BME280;23698;52.014;5.190;2024-03-08T05:45:50;101541.25;;;11.25;74.32
37860;BME280;23698;52.014;5.190;2024-03-08T05:48:37;101535.91;;;11.40;75.85
37860;BME280;23698;52.014;5.190;2024-03-08T05:51:24;101543.28;;;11.23;78.61
37860;BME280;23698;52.014;5.190;2024-03-08T05:54:12;101536.84;;;11.47;77.22
37860;BME280;23698;52.014;5.190;2024-03-08T05:57:03;101522.28;;;12.24;73.41
37860;BME280;23698;52.014;5.190;2024-03-08T05:59:51;101535.94;;;11.31;77.21
37860;BME280;23698;52.014;5.190;2024-03-08T06:02:37;101521.88;;;11.51;76.15
37860;BME280;23698;52.014;5.190;2024-03-08T06:05:27;101523.63;;;11.44;75.63
37860;BME280;23698;52.014;5.190;2024-03-08T06:08:13;101520.00;;;11.98;75.02
37860;BME280;23698;52.014;5.190;2024-03-08T06:11:00;101523.25;;;11.70;75.05
37860;BME280;23698;52.014;5.190;2024-03-08T06:13:48;101528.81;;;11.30;75.45
37860;BME280;23698;52.014;5.190;2024-03-08T06:16:37;101517.91;;;11.15;76.20
37860;BME280;23698;52.014;5.190;2024-03-08T06:19:24;101517.75;;;12.01;75.26
37860;BME280;23698;52.014;5.190;2024-03-08T06:22:12;101516.03;;;11.62;74.96
37860;BME280;23698;52.014;5.190;2024-03-08T06:24:59;101517.16;;;11.91;73.53
37860;BME280;23698;52.014;5.190;2024-03-08T06:27:46;101516.25;;;12.14;74.58
37860;BME280;23698;52.014;5.190;2024-03-08T06:30:32;101521.03;;;11.74;75.64
37860;BME280;23698;52.014;5.190;2024-03-08T06:33:21;101513.66;;;12.20;72.39
37860;BME280;23698;52.014;5.190;2024-03-08T06:36:08;101513.91;;;12.11;74.15
37860;BME280;23698;52.014;5.190;2024-03-08T06:38:57;101507.28;;;12.13;73.45
37860;BME280;23698;52.014;5.190;2024-03-08T06:41:44;101510.13;;;11.36;76.57
37860;BME280;23698;52.014;5.190;2024-03-08T06:44:30;101509.34;;;11.88;76.49
37860;BME280;23698;52.014;5.190;2024-03-08T06:47:18;101509.81;;;11.30;78.26
37860;BME280;23698;52.014;5.190;2024-03-08T06:50:07;101507.47;;;10.73;76.34
37860;BME280;23698;52.014;5.190;2024-03-08T06:52:53;101503.19;;;10.79;79.69
37860;BME280;23698;52.014;5.190;2024-03-08T06:55:40;101499.66;;;11.94;75.36
37860;BME280;23698;52.014;5.190;2024-03-08T06:58:27;101506.06;;;11.55;78.94
37860;BME280;23698;52.014;5.190;2024-03-08T07:01:14;101501.94;;;12.20;75.01
37860;BME280;23698;52.014;5.190;2024-03-08T07:04:02;101496.63;;;11.65;78.42
37860;BME280;23698;52.014;5.190;2024-03-08T07:06:52;101489.94;;;11.76;76.73
37860;BME280;23698;52.014;5.190;2024-03-08T07:09:38;101485.94;;;11.87;76.31
37860;BME280;23698;52.014;5.190;2024-03-08T07:12:28;101499.03;;;11.22;79.26
37860;BME280;23698;52.014;5.190;2024-03-08T07:15:15;101496.78;;;11.26;77.24
37860;BME280;23698;52.014;5.190;2024-03-08T07:18:05;101494.72;;;10.73;79.44
37860;BME280;23698;52.014;5.190;2024-03-08T07:20:54;101498.41;;;11.35;79.71
37860;BME280;23698;52.014;5.190;2024-03-08T07:23:43;101491.78;;;10.83;82.12
37860;BME280;23698;52.014;5.190;2024-03-08T07:26:48;101488.06;;;12.44;78.93
37860;BME280;23698;52.014;5.190;2024-03-08T07:29:37;101488.03;;;11.39;83.63
37860;BME280;23698;52.014;5.190;2024-03-08T07:32:24;101487.16;;;12.74;76.23
37860;BME280;23698;52.014;5.190;2024-03-08T07:35:12;101467.34;;;12.95;75.51
37860;BME280;23698;52.014;5.190;2024-03-08T07:37:59;101468.63;;;12.47;76.58
37860;BME280;23698;52.014;5.190;2024-03-08T07:40:47;101466.50;;;11.60;74.50
37860;BME280;23698;52.014;5.190;2024-03-08T07:43:34;101469.06;;;10.53;80.40
37860;BME280;23698;52.014;5.190;2024-03-08T07:46:22;101461.34;;;12.48;75.51
37860;BME280;23698;52.014;5.190;2024-03-08T07:49:08;101459.97;;;11.84;78.52
37860;BME280;23698;52.014;5.190;2024-03-08T07:51:56;101460.88;;;12.00;78.96
37860;BME280;23698;52.014;5.190;2024-03-08T07:54:43;101456.94;;;12.02;76.95
37860;BME280;23698;52.014;5.190;2024-03-08T07:57:31;101465.91;;;11.04;81.58
37860;BME280;23698;52.014;5.190;2024-03-08T08:00:18;101458.50;;;12.56;77.09
37860;BME280;23698;52.014;5.190;2024-03-08T08:03:05;101463.66;;;11.92;76.95
37860;BME280;23698;52.014;5.190;2024-03-08T08:05:53;101462.28;;;13.13;70.41
37860;BME280;23698;52.014;5.190;2024-03-08T08:08:41;101454.59;;;13.88;70.87
37860;BME280;23698;52.014;5.190;2024-03-08T08:11:28;101452.81;;;11.68;75.90
37860;BME280;23698;52.014;5.190;2024-03-08T08:14:16;101445.16;;;12.61;73.06
37860;BME280;23698;52.014;5.190;2024-03-08T08:17:04;101452.94;;;13.01;73.82
37860;BME280;23698;52.014;5.190;2024-03-08T08:19:50;101448.84;;;11.41;75.68
37860;BME280;23698;52.014;5.190;2024-03-08T08:22:37;101439.28;;;11.83;76.42
37860;BME280;23698;52.014;5.190;2024-03-08T08:25:24;101430.22;;;13.30;74.17
37860;BME280;23698;52.014;5.190;2024-03-08T08:28:11;101428.59;;;13.86;70.63
37860;BME280;23698;52.014;5.190;2024-03-08T08:31:01;101431.50;;;14.61;69.40
37860;BME280;23698;52.014;5.190;2024-03-08T08:33:49;101418.03;;;14.52;64.98
37860;BME280;23698;52.014;5.190;2024-03-08T08:36:39;101425.78;;;14.07;66.63
37860;BME280;23698;52.014;5.190;2024-03-08T08:39:25;101414.19;;;13.64;68.17
37860;BME280;23698;52.014;5.190;2024-03-08T08:42:13;101412.56;;;14.46;67.02
37860;BME280;23698;52.014;5.190;2024-03-08T08:44:59;101410.81;;;12.75;68.94
37860;BME280;23698;52.014;5.190;2024-03-08T08:48:03;101405.44;;;13.75;68.05
37860;BME280;23698;52.014;5.190;2024-03-08T08:50:51;101401.88;;;14.09;68.57
37860;BME280;23698;52.014;5.190;2024-03-08T08:53:38;101399.63;;;14.20;66.69
37860;BME280;23698;52.014;5.190;2024-03-08T08:56:25;101397.19;;;12.54;69.95
37860;BME280;23698;52.014;5.190;2024-03-08T08:59:13;101396.38;;;13.39;69.18
37860;BME280;23698;52.014;5.190;2024-03-08T09:02:03;101387.75;;;14.34;67.76
37860;BME280;23698;52.014;5.190;2024-03-08T09:04:51;101379.56;;;15.09;65.95
37860;BME280;23698;52.014;5.190;2024-03-08T09:07:38;101376.19;;;14.94;64.70
37860;BME280;23698;52.014;5.190;2024-03-08T09:10:25;101381.41;;;14.75;65.65
37860;BME280;23698;52.014;5.190;2024-03-08T09:13:15;101371.56;;;15.61;65.73
37860;BME280;23698;52.014;5.190;2024-03-08T09:16:15;101372.44;;;15.35;63.61
37860;BME280;23698;52.014;5.190;2024-03-08T09:19:01;101361.19;;;14.08;66.22
37860;BME280;23698;52.014;5.190;2024-03-08T09:21:49;101367.78;;;13.85;67.08
37860;BME280;23698;52.014;5.190;2024-03-08T09:24:36;101365.69;;;14.84;64.80
37860;BME280;23698;52.014;5.190;2024-03-08T09:27:23;101355.84;;;15.29;64.89
37860;BME280;23698;52.014;5.190;2024-03-08T09:30:10;101351.22;;;15.17;65.04
37860;BME280;23698;52.014;5.190;2024-03-08T09:32:58;101355.50;;;14.51;65.05
37860;BME280;23698;52.014;5.190;2024-03-08T09:35:45;101331.91;;;15.05;64.51
37860;BME280;23698;52.014;5.190;2024-03-08T09:38:34;101334.81;;;14.77;66.61
37860;BME280;23698;52.014;5.190;2024-03-08T09:41:21;101343.00;;;15.23;63.67
37860;BME280;23698;52.014;5.190;2024-03-08T09:44:07;101341.88;;;14.58;65.91
37860;BME280;23698;52.014;5.190;2024-03-08T09:46:54;101327.91;;;14.19;67.41
37860;BME280;23698;52.014;5.190;2024-03-08T09:49:41;101318.84;;;14.73;67.63
37860;BME280;23698;52.014;5.190;2024-03-08T09:52:29;101316.09;;;14.60;68.30
37860;BME280;23698;52.014;5.190;2024-03-08T09:55:18;101315.56;;;14.30;66.44
37860;BME280;23698;52.014;5.190;2024-03-08T09:58:11;101305.38;;;14.59;66.85
37860;BME280;23698;52.014;5.190;2024-03-08T10:01:21;101308.59;;;13.72;68.37
37860;BME280;23698;52.014;5.190;2024-03-08T10:04:08;101299.34;;;15.17;67.45
37860;BME280;23698;52.014;5.190;2024-03-08T10:06:57;101292.53;;;14.52;67.71
37860;BME280;23698;52.014;5.190;2024-03-08T10:09:44;101286.19;;;14.25;68.34
37860;BME280;23698;52.014;5.190;2024-03-08T10:12:37;101279.16;;;14.78;65.92
37860;BME280;23698;52.014;5.190;2024-03-08T10:15:26;101281.56;;;14.32;67.08
37860;BME280;23698;52.014;5.190;2024-03-08T10:18:13;101277.44;;;14.57;68.07
37860;BME280;23698;52.014;5.190;2024-03-08T10:21:06;101268.44;;;15.36;67.17
37860;BME280;23698;52.014;5.190;2024-03-08T10:23:55;101253.91;;;15.42;66.03
37860;BME280;23698;52.014;5.190;2024-03-08T10:26:42;101256.16;;;14.19;67.77
37860;BME280;23698;52.014;5.190;2024-03-08T10:29:31;101241.78;;;14.58;66.08
37860;BME280;23698;52.014;5.190;2024-03-08T10:32:18;101243.84;;;15.23;65.96
37860;BME280;23698;52.014;5.190;2024-03-08T10:35:05;101232.00;;;15.62;66.10
37860;BME280;23698;52.014;5.190;2024-03-08T10:37:55;101234.16;;;15.40;65.08
37860;BME280;23698;52.014;5.190;2024-03-08T10:40:44;101227.88;;;15.26;63.21
37860;BME280;23698;52.014;5.190;2024-03-08T10:43:45;101229.38;;;16.26;64.49
37860;BME280;23698;52.014;5.190;2024-03-08T10:46:50;101214.81;;;14.08;65.86
37860;BME280;23698;52.014;5.190;2024-03-08T10:49:50;101217.22;;;15.70;64.16
37860;BME280;23698;52.014;5.190;2024-03-08T10:52:39;101209.09;;;16.02;61.49
37860;BME280;23698;52.014;5.190;2024-03-08T10:55:28;101199.78;;;15.71;61.02
37860;BME280;23698;52.014;5.190;2024-03-08T10:58:15;101192.44;;;15.65;62.85
37860;BME280;23698;52.014;5.190;2024-03-08T11:01:02;101183.41;;;16.41;60.46
37860;BME280;23698;52.014;5.190;2024-03-08T11:03:51;101175.31;;;17.04;62.18
37860;BME280;23698;52.014;5.190;2024-03-08T11:06:42;101164.00;;;16.68;60.81
37860;BME280;23698;52.014;5.190;2024-03-08T11:09:32;101157.09;;;16.40;60.19
37860;BME280;23698;52.014;5.190;2024-03-08T11:12:20;101154.03;;;15.53;60.34
37860;BME280;23698;52.014;5.190;2024-03-08T11:15:10;101141.81;;;16.76;60.58
37860;BME280;23698;52.014;5.190;2024-03-08T11:17:58;101130.22;;;16.56;60.65
37860;BME280;23698;52.014;5.190;2024-03-08T11:20:48;101131.78;;;16.95;57.47
37860;BME280;23698;52.014;5.190;2024-03-08T11:23:35;101123.97;;;15.53;56.66
37860;BME280;23698;52.014;5.190;2024-03-08T11:26:24;101112.50;;;16.84;56.62
37860;BME280;23698;52.014;5.190;2024-03-08T11:29:32;101111.34;;;16.73;56.14
37860;BME280;23698;52.014;5.190;2024-03-08T11:32:21;101111.91;;;16.31;55.23
37860;BME280;23698;52.014;5.190;2024-03-08T11:35:18;101098.09;;;16.51;56.27
37860;BME280;23698;52.014;5.190;2024-03-08T11:38:07;101096.38;;;17.31;55.17
37860;BME280;23698;52.014;5.190;2024-03-08T11:40:56;101095.16;;;15.96;55.75
37860;BME280;23698;52.014;5.190;2024-03-08T11:43:43;101080.66;;;17.38;53.97
37860;BME280;23698;52.014;5.190;2024-03-08T11:46:29;101088.81;;;17.26;54.45
37860;BME280;23698;52.014;5.190;2024-03-08T11:49:16;101089.50;;;16.66;54.48
37860;BME280;23698;52.014;5.190;2024-03-08T11:52:04;101082.81;;;17.66;54.41
37860;BME280;23698;52.014;5.190;2024-03-08T11:54:53;101074.81;;;16.60;54.58
37860;BME280;23698;52.014;5.190;2024-03-08T11:57:43;101072.31;;;17.33;55.09
37860;BME280;23698;52.014;5.190;2024-03-08T12:00:30;101070.59;;;16.14;54.64
37860;BME280;23698;52.014;5.190;2024-03-08T12:03:23;101090.00;;;17.00;54.59
37860;BME280;23698;52.014;5.190;2024-03-08T12:06:09;101064.22;;;17.99;54.96
37860;BME280;23698;52.014;5.190;2024-03-08T12:08:56;101061.13;;;17.34;54.58
37860;BME280;23698;52.014;5.190;2024-03-08T12:11:47;101084.47;;;16.88;54.21
37860;BME280;23698;52.014;5.190;2024-03-08T12:14:34;101071.75;;;16.50;56.02
37860;BME280;23698;52.014;5.190;2024-03-08T12:17:21;101063.47;;;16.13;55.99
37860;BME280;23698;52.014;5.190;2024-03-08T12:20:15;101069.00;;;15.81;57.07
37860;BME280;23698;52.014;5.190;2024-03-08T12:23:01;101048.06;;;17.18;55.66
37860;BME280;23698;52.014;5.190;2024-03-08T12:25:49;101050.56;;;16.83;54.46
37860;BME280;23698;52.014;5.190;2024-03-08T12:28:37;101078.16;;;15.94;55.78
37860;BME280;23698;52.014;5.190;2024-03-08T12:31:23;101042.44;;;17.13;54.76
37860;BME280;23698;52.014;5.190;2024-03-08T12:34:11;101041.72;;;16.25;56.50
37860;BME280;23698;52.014;5.190;2024-03-08T12:36:58;101033.03;;;17.81;54.73
37860;BME280;23698;52.014;5.190;2024-03-08T12:39:46;101032.09;;;17.45;56.43
37860;BME280;23698;52.014;5.190;2024-03-08T12:42:32;101026.31;;;16.68;56.38
37860;BME280;23698;52.014;5.190;2024-03-08T12:45:27;101016.88;;;16.82;55.61
37860;BME280;23698;52.014;5.190;2024-03-08T12:48:14;101026.13;;;16.44;55.64
37860;BME280;23698;52.014;5.190;2024-03-08T12:51:01;101011.63;;;16.80;55.35
37860;BME280;23698;52.014;5.190;2024-03-08T12:53:48;101010.69;;;16.93;53.88
37860;BME280;23698;52.014;5.190;2024-03-08T12:56:40;100996.53;;;16.41;56.00
37860;BME280;23698;52.014;5.190;2024-03-08T12:59:27;101017.81;;;16.76;55.25
37860;BME280;23698;52.014;5.190;2024-03-08T13:02:15;100994.63;;;17.27;53.99
37860;BME280;23698;52.014;5.190;2024-03-08T13:05:02;100996.34;;;16.91;54.54
37860;BME280;23698;52.014;5.190;2024-03-08T13:07:50;100992.88;;;16.66;54.85
37860;BME280;23698;52.014;5.190;2024-03-08T13:10:39;100991.19;;;16.46;55.95
37860;BME280;23698;52.014;5.190;2024-03-08T13:13:25;100983.84;;;17.56;54.21
37860;BME280;23698;52.014;5.190;2024-03-08T13:16:12;100994.66;;;17.09;53.73
37860;BME280;23698;52.014;5.190;2024-03-08T13:19:01;100989.91;;;16.49;54.79
37860;BME280;23698;52.014;5.190;2024-03-08T13:21:47;100982.78;;;17.15;55.12
37860;BME280;23698;52.014;5.190;2024-03-08T13:24:34;100974.38;;;17.70;54.14
37860;BME280;23698;52.014;5.190;2024-03-08T13:27:22;100972.25;;;16.82;54.71
37860;BME280;23698;52.014;5.190;2024-03-08T13:30:11;100968.47;;;16.64;54.50
37860;BME280;23698;52.014;5.190;2024-03-08T13:32:59;100961.78;;;17.09;53.96
37860;BME280;23698;52.014;5.190;2024-03-08T13:35:47;100954.63;;;17.38;54.78
37860;BME280;23698;52.014;5.190;2024-03-08T13:38:36;100960.31;;;16.94;55.82
37860;BME280;23698;52.014;5.190;2024-03-08T13:41:23;100954.47;;;16.91;54.92
37860;BME280;23698;52.014;5.190;2024-03-08T13:44:11;100957.31;;;17.80;53.34
37860;BME280;23698;52.014;5.190;2024-03-08T13:46:59;100943.06;;;17.36;55.00
37860;BME280;23698;52.014;5.190;2024-03-08T13:49:49;100936.59;;;17.84;54.05
37860;BME280;23698;52.014;5.190;2024-03-08T13:52:38;100940.75;;;17.63;54.20
37860;BME280;23698;52.014;5.190;2024-03-08T13:55:26;100931.28;;;17.35;53.48
37860;BME280;23698;52.014;5.190;2024-03-08T13:58:13;100918.63;;;18.12;53.75
37860;BME280;23698;52.014;5.190;2024-03-08T14:01:01;100921.59;;;17.21;53.25
37860;BME280;23698;52.014;5.190;2024-03-08T14:03:49;100915.34;;;17.44;53.45
37860;BME280;23698;52.014;5.190;2024-03-08T14:06:36;100919.28;;;17.84;53.85
37860;BME280;23698;52.014;5.190;2024-03-08T14:09:25;100898.28;;;17.00;54.16
37860;BME280;23698;52.014;5.190;2024-03-08T14:12:14;100909.06;;;16.83;54.05
37860;BME280;23698;52.014;5.190;2024-03-08T14:15:02;100900.28;;;17.23;54.15
37860;BME280;23698;52.014;5.190;2024-03-08T14:17:54;100890.31;;;17.41;53.34
37860;BME280;23698;52.014;5.190;2024-03-08T14:20:41;100877.97;;;18.38;52.30
37860;BME280;23698;52.014;5.190;2024-03-08T14:23:28;100883.00;;;17.11;52.53
37860;BME280;23698;52.014;5.190;2024-03-08T14:26:15;100886.75;;;16.49;53.91
37860;BME280;23698;52.014;5.190;2024-03-08T14:29:02;100875.06;;;16.91;53.96
37860;BME280;23698;52.014;5.190;2024-03-08T14:31:50;100865.84;;;17.27;53.70
37860;BME280;23698;52.014;5.190;2024-03-08T14:34:36;100858.22;;;17.29;54.19
37860;BME280;23698;52.014;5.190;2024-03-08T14:37:23;100856.56;;;17.16;55.12
37860;BME280;23698;52.014;5.190;2024-03-08T14:40:14;100858.19;;;16.27;55.02